Time;durP1;ratioP1;P1;durP2;ratioP2;P2;SDS_P1;SDS_P2;PMS_P1;PMS_P2;Temp;Humidity;BMP_temperature;BMP_pressure;BME280_temperature;BME280_humidity;BME280_pressure;Samples;Min_cycle;Max_cycle;Signal;HPM_P1;HPM_P2
2022/09/24 00:01:20;;;;;;;31.02;17.20;;;14.00;99.90;;;;;;5054913;28;20036;-71
2022/09/24 00:03:59;;;;;;;29.40;17.95;;;13.90;99.90;;;;;;5053512;28;20091;-71
2022/09/24 00:06:26;;;;;;;32.28;18.02;;;14.00;99.90;;;;;;5052422;28;20502;-73
2022/09/24 00:08:54;;;;;;;26.45;16.70;;;14.00;99.90;;;;;;5035814;28;20681;-72
2022/09/24 00:11:21;;;;;;;33.60;18.55;;;14.00;99.90;;;;;;5035399;28;20056;-71
2022/09/24 00:13:48;;;;;;;26.77;16.58;;;14.00;99.90;;;;;;5050093;28;20083;-71
2022/09/24 00:16:16;;;;;;;27.67;18.70;;;14.00;99.90;;;;;;5028954;28;20087;-71
2022/09/24 00:18:41;;;;;;;29.95;17.55;;;14.00;99.90;;;;;;5026309;28;20091;-72
2022/09/24 00:21:31;;;;;;;32.25;19.25;;;14.00;99.90;;;;;;5059394;28;20449;-71
2022/09/24 00:23:59;;;;;;;29.27;17.85;;;14.00;99.90;;;;;;5041729;28;20097;-71
2022/09/24 00:29:13;;;;;;;29.88;18.40;;;14.00;99.90;;;;;;5034144;28;20049;-71
2022/09/24 00:31:42;;;;;;;30.40;20.02;;;14.00;99.90;;;;;;4986506;28;20299;-72
2022/09/24 00:34:14;;;;;;;31.33;18.85;;;14.00;99.90;;;;;;4845596;28;20534;-73
2022/09/24 00:36:40;;;;;;;30.48;18.27;;;14.00;99.90;;;;;;4941487;28;20047;-71
2022/09/24 00:39:07;;;;;;;31.77;20.65;;;14.00;99.90;;;;;;5054644;28;20524;-71
2022/09/24 00:41:36;;;;;;;32.67;19.88;;;14.00;99.90;;;;;;5057190;28;20117;-71
2022/09/24 00:44:40;;;;;;;32.88;20.33;;;14.00;99.90;;;;;;5040662;28;20025;-71
2022/09/24 00:47:24;;;;;;;36.05;20.23;;;14.00;99.90;;;;;;4944903;28;20403;-72
2022/09/24 00:50:20;;;;;;;33.28;19.45;;;14.00;99.90;;;;;;4979649;28;20064;-74
2022/09/24 00:53:17;;;;;;;33.25;20.63;;;14.00;99.90;;;;;;5025987;28;20545;-72
2022/09/24 00:55:49;;;;;;;34.30;19.80;;;14.00;99.90;;;;;;4948075;28;20787;-72
2022/09/24 00:58:15;;;;;;;32.72;20.08;;;14.00;99.90;;;;;;5027946;28;20406;-72
2022/09/24 01:00:44;;;;;;;34.35;21.08;;;14.00;99.90;;;;;;5058879;28;20056;-72
2022/09/24 01:03:17;;;;;;;34.00;21.60;;;14.00;99.90;;;;;;5055286;28;20040;-72
2022/09/24 01:05:43;;;;;;;36.05;21.08;;;14.00;99.90;;;;;;5041561;28;20041;-72
2022/09/24 01:08:13;;;;;;;36.88;21.50;;;14.00;99.90;;;;;;5037864;28;20043;-72
2022/09/24 01:11:04;;;;;;;34.58;21.02;;;14.00;99.90;;;;;;5039041;28;20194;-72
2022/09/24 01:14:05;;;;;;;38.20;21.63;;;14.00;99.90;;;;;;5050885;28;20053;-70
2022/09/24 01:16:52;;;;;;;37.00;22.38;;;14.10;99.90;;;;;;4992410;28;20217;-72
2022/09/24 01:20:06;;;;;;;35.47;21.77;;;14.00;99.90;;;;;;5040677;28;20048;-73
2022/09/24 01:22:38;;;;;;;32.55;20.50;;;14.10;99.90;;;;;;5044260;28;20175;-72
2022/09/24 01:25:14;;;;;;;35.33;21.70;;;14.10;99.90;;;;;;5037057;28;20091;-73
2022/09/24 01:28:06;;;;;;;38.33;21.48;;;14.10;99.90;;;;;;5038419;28;20535;-72
2022/09/24 01:30:37;;;;;;;35.35;22.02;;;14.10;99.90;;;;;;5000848;28;20045;-73
2022/09/24 01:33:07;;;;;;;34.08;20.55;;;14.10;99.90;;;;;;5035173;28;20385;-72
2022/09/24 01:35:47;;;;;;;36.00;21.13;;;14.10;99.90;;;;;;5052054;28;20036;-73
2022/09/24 01:38:19;;;;;;;34.47;20.77;;;14.10;99.90;;;;;;5061246;28;20060;-73
2022/09/24 01:40:48;;;;;;;35.42;20.02;;;14.10;99.90;;;;;;5030506;28;20073;-73
2022/09/24 01:43:17;;;;;;;34.67;21.40;;;14.10;99.90;;;;;;5048631;28;20478;-73
2022/09/24 01:45:45;;;;;;;40.10;22.30;;;14.10;99.90;;;;;;5054640;28;20087;-73
2022/09/24 01:48:11;;;;;;;36.55;21.73;;;14.10;99.90;;;;;;5039045;28;20139;-73
2022/09/24 01:50:50;;;;;;;41.65;23.80;;;14.00;99.90;;;;;;5037582;28;20044;-73
2022/09/24 01:53:23;;;;;;;39.83;22.45;;;14.10;99.90;;;;;;5041214;28;20060;-73
2022/09/24 01:56:08;;;;;;;35.67;21.35;;;14.10;99.90;;;;;;5059270;28;20048;-73
2022/09/24 01:58:48;;;;;;;35.90;21.30;;;14.10;99.90;;;;;;5057652;28;20381;-73
2022/09/24 02:01:20;;;;;;;39.95;22.02;;;14.10;99.90;;;;;;5041252;28;20092;-73
2022/09/24 02:03:51;;;;;;;37.35;21.60;;;14.10;99.90;;;;;;5102765;22;20150;-72
2022/09/24 02:06:26;;;;;;;33.28;20.15;;;14.10;99.90;;;;;;5088766;28;20074;-71
2022/09/24 02:08:55;;;;;;;36.95;21.23;;;14.10;99.90;;;;;;5091843;28;20215;-72
2022/09/24 02:11:22;;;;;;;35.60;20.80;;;14.10;99.90;;;;;;5093958;28;20036;-72
2022/09/24 02:14:07;;;;;;;34.10;19.33;;;14.10;99.90;;;;;;5073913;28;20040;-72
2022/09/24 02:16:38;;;;;;;32.85;19.50;;;14.10;99.90;;;;;;5070463;28;20175;-72
2022/09/24 02:19:09;;;;;;;32.35;19.10;;;14.10;99.90;;;;;;5068191;28;20397;-72
2022/09/24 02:21:37;;;;;;;31.75;18.33;;;14.10;99.90;;;;;;5066001;28;20040;-72
2022/09/24 02:24:35;;;;;;;30.50;18.52;;;14.10;99.90;;;;;;5064683;28;20123;-72
2022/09/24 02:27:00;;;;;;;28.48;16.83;;;14.10;99.90;;;;;;5060686;28;20058;-72
2022/09/24 02:29:26;;;;;;;29.88;17.95;;;14.10;99.90;;;;;;5075242;28;20061;-72
2022/09/24 02:31:55;;;;;;;28.33;17.88;;;14.10;99.90;;;;;;5066366;28;20068;-72
2022/09/24 02:34:31;;;;;;;33.15;18.20;;;14.10;99.90;;;;;;5072697;28;20431;-72
2022/09/24 02:36:59;;;;;;;32.20;18.60;;;14.10;99.90;;;;;;5065277;28;20060;-72
2022/09/24 02:39:25;;;;;;;30.90;19.02;;;14.10;99.90;;;;;;5058111;28;20056;-72
2022/09/24 02:41:52;;;;;;;34.63;19.52;;;14.10;99.90;;;;;;5063689;28;20492;-72
2022/09/24 02:44:19;;;;;;;30.60;18.08;;;14.10;99.90;;;;;;5069059;28;20060;-72
2022/09/24 02:46:46;;;;;;;29.67;17.88;;;14.10;99.90;;;;;;5066445;28;20659;-73
2022/09/24 02:49:14;;;;;;;31.20;17.35;;;14.00;99.90;;;;;;5074663;28;20119;-72
2022/09/24 02:51:41;;;;;;;28.35;16.52;;;14.10;99.90;;;;;;5066815;28;20513;-72
2022/09/24 02:54:07;;;;;;;23.90;14.63;;;14.00;99.90;;;;;;5070004;28;20101;-72
2022/09/24 02:56:33;;;;;;;21.73;12.82;;;14.00;99.90;;;;;;5077097;28;20413;-72
2022/09/24 02:59:00;;;;;;;17.67;8.77;;;14.10;99.90;;;;;;5067328;28;20051;-72
2022/09/24 03:01:25;;;;;;;9.68;5.93;;;14.00;99.90;;;;;;5071017;28;20040;-73
2022/09/24 03:03:51;;;;;;;11.75;7.00;;;14.00;99.90;;;;;;5080972;28;20514;-73
2022/09/24 03:06:16;;;;;;;10.77;6.10;;;14.00;99.90;;;;;;5068368;28;20036;-73
2022/09/24 03:08:43;;;;;;;7.53;4.10;;;14.00;99.90;;;;;;5066148;28;20555;-73
2022/09/24 03:11:09;;;;;;;5.55;2.60;;;14.00;99.90;;;;;;5064033;28;20048;-73
2022/09/24 03:13:35;;;;;;;3.90;2.10;;;14.00;99.90;;;;;;5069201;28;20056;-73
2022/09/24 03:16:06;;;;;;;4.32;2.45;;;14.00;99.90;;;;;;5064664;28;20036;-73
2022/09/24 03:18:32;;;;;;;6.05;3.25;;;14.00;99.90;;;;;;5057972;28;20071;-73
2022/09/24 03:20:59;;;;;;;;;;;14.00;99.90;;;;;;5078558;28;20588;-73
2022/09/24 03:23:25;;;;;;;9.88;4.57;;;14.00;99.90;;;;;;5059080;28;19916;-73
2022/09/24 03:25:51;;;;;;;8.65;4.50;;;14.00;99.90;;;;;;5077109;28;20055;-73
2022/09/24 03:28:17;;;;;;;7.30;4.57;;;14.00;99.90;;;;;;5071969;28;20040;-73
2022/09/24 03:30:58;;;;;;;9.38;5.13;;;14.10;99.90;;;;;;5070487;28;20048;-73
2022/09/24 03:33:43;;;;;;;9.30;4.50;;;14.00;99.90;;;;;;5074634;28;20036;-73
2022/09/24 03:36:15;;;;;;;7.82;4.22;;;14.00;99.90;;;;;;5071646;28;20045;-73
2022/09/24 03:38:41;;;;;;;7.20;4.30;;;14.00;99.90;;;;;;5063662;28;20045;-73
2022/09/24 03:41:08;;;;;;;8.45;5.20;;;14.00;99.90;;;;;;5074329;28;20036;-73
2022/09/24 03:43:34;;;;;;;8.23;4.10;;;14.00;99.90;;;;;;5077421;28;20055;-73
2022/09/24 03:46:00;;;;;;;8.77;4.13;;;14.00;99.90;;;;;;5068953;28;20048;-73
2022/09/24 03:48:26;;;;;;;6.17;3.70;;;14.10;99.90;;;;;;5066369;28;20490;-73
2022/09/24 03:50:52;;;;;;;;;;;14.10;99.90;;;;;;5081437;28;20388;-73
2022/09/24 03:53:19;;;;;;;7.75;4.20;;;14.00;99.90;;;;;;5054711;28;19916;-72
2022/09/24 03:55:47;;;;;;;;;;;14.00;99.90;;;;;;5070698;28;20511;-73
2022/09/24 03:58:14;;;;;;;9.60;4.25;;;14.00;99.90;;;;;;5071151;28;19974;-73
2022/09/24 04:00:41;;;;;;;8.10;4.90;;;14.00;99.90;;;;;;5072503;28;20047;-73
2022/09/24 04:03:07;;;;;;;10.88;5.28;;;14.10;99.90;;;;;;5068447;28;20112;-73
2022/09/24 04:05:33;;;;;;;8.55;5.30;;;14.10;99.90;;;;;;5071392;28;20060;-72
2022/09/24 04:07:59;;;;;;;9.97;5.27;;;14.10;99.90;;;;;;5066255;28;20068;-73
2022/09/24 04:10:24;;;;;;;9.38;5.53;;;14.10;99.90;;;;;;5064098;28;20285;-73
2022/09/24 04:12:51;;;;;;;11.85;5.90;;;14.00;99.90;;;;;;5065534;28;20093;-73
2022/09/24 04:15:18;;;;;;;9.52;6.03;;;14.10;99.90;;;;;;5062490;28;20506;-73
2022/09/24 04:17:52;;;;;;;9.50;5.70;;;14.10;99.90;;;;;;5070626;28;20040;-72
2022/09/24 04:20:21;;;;;;;10.13;5.10;;;14.10;99.90;;;;;;5066526;28;20047;-73
2022/09/24 04:22:48;;;;;;;7.65;4.25;;;14.10;99.90;;;;;;5082812;28;20089;-73
2022/09/24 04:25:13;;;;;;;6.80;3.92;;;14.10;99.90;;;;;;5069605;28;20033;-73
2022/09/24 04:27:40;;;;;;;5.75;3.15;;;14.10;99.90;;;;;;5071503;28;20047;-73
2022/09/24 04:30:06;;;;;;;;;;;14.10;99.90;;;;;;5072758;28;20181;-73
2022/09/24 04:32:32;;;;;;;8.30;3.85;;;14.10;99.90;;;;;;5070386;28;20414;-73
2022/09/24 04:34:57;;;;;;;9.27;3.03;;;14.10;99.90;;;;;;5068516;28;20191;-72
2022/09/24 04:37:23;;;;;;;4.43;2.50;;;14.10;99.90;;;;;;5065686;28;20054;-73
2022/09/24 04:39:48;;;;;;;10.67;3.37;;;14.10;99.90;;;;;;5067937;28;20301;-73
2022/09/24 04:42:17;;;;;;;7.30;3.20;;;14.10;99.90;;;;;;5073097;28;20210;-73
2022/09/24 04:44:46;;;;;;;6.80;2.72;;;14.10;99.90;;;;;;5076612;28;20040;-73
2022/09/24 04:47:15;;;;;;;6.85;2.47;;;14.10;99.90;;;;;;5054994;28;20123;-73
2022/09/24 04:49:43;;;;;;;8.50;2.22;;;14.10;99.90;;;;;;5054156;28;20036;-73
2022/09/24 04:52:09;;;;;;;4.18;1.80;;;14.10;99.90;;;;;;5065415;28;20049;-73
2022/09/24 04:54:35;;;;;;;12.43;1.60;;;14.10;99.90;;;;;;5068194;28;20048;-73
2022/09/24 04:57:00;;;;;;;3.67;1.70;;;14.00;99.90;;;;;;5068106;28;20055;-73
2022/09/24 04:59:26;;;;;;;5.73;1.97;;;14.10;99.90;;;;;;5061186;28;20472;-73
2022/09/24 05:01:53;;;;;;;4.15;1.30;;;14.10;99.90;;;;;;5080669;28;20043;-73
2022/09/24 05:04:18;;;;;;;8.40;1.20;;;14.10;99.90;;;;;;5079300;28;20033;-73
2022/09/24 05:06:44;;;;;;;2.72;1.00;;;14.00;99.90;;;;;;5070300;28;20177;-73
2022/09/24 05:09:10;;;;;;;8.40;1.60;;;14.00;99.90;;;;;;5060497;28;20456;-73
2022/09/24 05:11:35;;;;;;;7.65;1.02;;;14.00;99.90;;;;;;5065952;28;20285;-73
2022/09/24 05:14:01;;;;;;;6.00;1.00;;;14.00;99.90;;;;;;5079405;28;20083;-73
2022/09/24 05:16:26;;;;;;;5.53;1.50;;;13.90;99.90;;;;;;5073471;28;20308;-73
2022/09/24 05:18:52;;;;;;;4.83;0.80;;;13.90;99.90;;;;;;5067742;28;20265;-73
2022/09/24 05:21:18;;;;;;;1.95;0.70;;;13.90;99.90;;;;;;5072788;28;20308;-73
2022/09/24 05:23:43;;;;;;;2.73;0.90;;;13.90;99.90;;;;;;5076057;28;20048;-73
2022/09/24 05:28:53;;;;;;;2.75;0.73;;;13.80;99.90;;;;;;5072576;28;20284;-73
2022/09/24 05:31:19;;;;;;;2.83;0.93;;;13.80;99.90;;;;;;5070460;28;20391;-73
2022/09/24 05:33:45;;;;;;;3.78;0.90;;;13.80;99.90;;;;;;5068114;28;20276;-73
2022/09/24 05:36:10;;;;;;;4.25;0.80;;;13.70;99.90;;;;;;5068104;28;20610;-73
2022/09/24 05:38:36;;;;;;;2.50;0.68;;;13.80;99.90;;;;;;5064065;28;20127;-73
2022/09/24 05:41:02;;;;;;;7.85;1.25;;;13.70;99.90;;;;;;5070292;28;20071;-73
2022/09/24 05:43:28;;;;;;;4.97;0.82;;;13.70;99.90;;;;;;5067236;28;20444;-73
2022/09/24 05:45:55;;;;;;;4.90;1.23;;;13.70;99.90;;;;;;5060721;28;20507;-73
2022/09/24 05:48:21;;;;;;;4.05;0.60;;;13.70;99.90;;;;;;5069105;28;20455;-73
2022/09/24 05:50:47;;;;;;;7.05;1.30;;;13.60;99.90;;;;;;5072645;28;20049;-73
2022/09/24 05:53:12;;;;;;;2.20;0.60;;;13.70;99.90;;;;;;5070907;28;20845;-73
2022/09/24 05:55:38;;;;;;;5.27;0.80;;;13.60;99.90;;;;;;5071089;28;20433;-73
2022/09/24 05:58:09;;;;;;;9.33;1.13;;;13.60;99.90;;;;;;5070200;28;20317;-73
2022/09/24 06:00:35;;;;;;;2.75;1.02;;;13.70;99.90;;;;;;5074775;28;20822;-73
2022/09/24 06:03:03;;;;;;;4.60;0.75;;;13.70;99.90;;;;;;5075936;28;20093;-73
2022/09/24 06:05:29;;;;;;;6.20;1.23;;;13.60;99.90;;;;;;5084133;28;20446;-73
2022/09/24 06:07:55;;;;;;;7.90;0.73;;;13.60;99.90;;;;;;5073495;28;20079;-73
2022/09/24 06:10:20;;;;;;;4.22;0.70;;;13.60;99.90;;;;;;5075220;28;20281;-73
2022/09/24 06:12:46;;;;;;;4.90;0.60;;;13.70;99.90;;;;;;5072899;28;20497;-73
2022/09/24 06:15:12;;;;;;;6.37;1.80;;;13.60;99.90;;;;;;5074465;28;20028;-73
2022/09/24 06:17:38;;;;;;;5.07;0.52;;;13.70;99.90;;;;;;5090921;28;20123;-73
2022/09/24 06:20:04;;;;;;;7.32;0.98;;;13.70;99.90;;;;;;5072717;28;20516;-73
2022/09/24 06:22:30;;;;;;;2.17;0.70;;;13.70;99.90;;;;;;5076502;28;20056;-73
2022/09/24 06:24:55;;;;;;;2.33;0.60;;;13.60;99.90;;;;;;5082989;28;20041;-73
2022/09/24 06:27:21;;;;;;;4.57;1.10;;;13.70;99.90;;;;;;5070070;28;20032;-73
2022/09/24 06:29:46;;;;;;;2.80;0.60;;;13.70;99.90;;;;;;5068371;28;20039;-73
2022/09/24 06:32:12;;;;;;;3.83;0.70;;;13.70;99.90;;;;;;5069471;28;20320;-73
2022/09/24 06:34:38;;;;;;;4.23;0.60;;;13.70;99.90;;;;;;5071759;28;20055;-72
2022/09/24 06:37:03;;;;;;;2.20;1.00;;;13.70;99.90;;;;;;5072158;28;20456;-72
2022/09/24 06:39:29;;;;;;;4.97;0.77;;;13.70;99.90;;;;;;5063951;28;20366;-73
2022/09/24 06:41:55;;;;;;;5.03;0.73;;;13.70;99.90;;;;;;5077156;28;20032;-73
2022/09/24 06:44:20;;;;;;;8.43;0.80;;;13.70;99.90;;;;;;5071240;28;20369;-73
2022/09/24 06:46:47;;;;;;;3.55;0.65;;;13.70;99.90;;;;;;5069369;28;20055;-72
2022/09/24 06:49:12;;;;;;;4.10;0.70;;;13.70;99.90;;;;;;5066231;28;20032;-73
2022/09/24 06:51:38;;;;;;;6.77;1.90;;;13.70;99.90;;;;;;5071929;28;20071;-72
2022/09/24 06:54:04;;;;;;;4.13;0.63;;;13.70;99.90;;;;;;5065066;28;20738;-72
2022/09/24 06:56:29;;;;;;;3.38;0.68;;;13.70;99.90;;;;;;5077115;28;20129;-73
2022/09/24 06:58:55;;;;;;;5.68;1.02;;;13.80;99.90;;;;;;5075258;28;20493;-73
2022/09/24 07:01:21;;;;;;;2.28;0.70;;;13.80;99.90;;;;;;5056283;28;20186;-73
2022/09/24 07:03:47;;;;;;;2.22;0.95;;;13.80;99.90;;;;;;5076072;28;20433;-73
2022/09/24 07:06:12;;;;;;;4.63;0.50;;;13.80;99.90;;;;;;5079756;28;20051;-72
2022/09/24 07:08:38;;;;;;;3.00;0.70;;;13.80;99.90;;;;;;5067491;28;20117;-72
2022/09/24 07:11:04;;;;;;;1.30;0.90;;;13.80;99.90;;;;;;5075206;28;20052;-72
2022/09/24 07:13:30;;;;;;;3.47;0.70;;;13.80;99.90;;;;;;5067981;28;20802;-72
2022/09/24 07:15:55;;;;;;;2.40;0.40;;;13.80;99.90;;;;;;5076972;28;20071;-72
2022/09/24 07:18:21;;;;;;;2.85;0.57;;;13.90;99.90;;;;;;5063906;28;20070;-73
2022/09/24 07:20:52;;;;;;;6.82;0.57;;;13.90;99.90;;;;;;5075907;28;20056;-73
2022/09/24 07:23:17;;;;;;;4.25;0.60;;;13.90;99.90;;;;;;5071114;28;20151;-73
2022/09/24 07:25:44;;;;;;;5.68;0.82;;;13.90;99.90;;;;;;5071527;28;20127;-71
2022/09/24 07:28:11;;;;;;;;;;;13.90;99.90;;;;;;5074401;28;20072;-72
2022/09/24 07:30:37;;;;;;;3.83;0.60;;;13.90;99.90;;;;;;5071779;28;19952;-72
2022/09/24 07:33:03;;;;;;;;;;;14.00;99.90;;;;;;5067583;28;20375;-72
2022/09/24 07:35:30;;;;;;;2.53;0.77;;;14.00;99.90;;;;;;5073636;28;20365;-72
2022/09/24 07:38:00;;;;;;;2.42;0.80;;;14.00;99.90;;;;;;5078558;28;20062;-72
2022/09/24 07:40:27;;;;;;;2.13;0.60;;;14.00;99.90;;;;;;5064937;28;20060;-72
2022/09/24 07:42:54;;;;;;;2.95;0.43;;;14.10;99.90;;;;;;5062098;28;20634;-71
2022/09/24 07:45:23;;;;;;;2.72;0.68;;;14.10;99.90;;;;;;5062893;28;20041;-72
2022/09/24 07:47:59;;;;;;;1.27;0.30;;;14.10;99.90;;;;;;5071386;28;20124;-71
2022/09/24 07:50:27;;;;;;;0.97;0.40;;;14.10;99.90;;;;;;5066211;28;20112;-72
2022/09/24 07:52:53;;;;;;;2.78;0.68;;;14.20;99.90;;;;;;5081698;28;20036;-72
2022/09/24 07:55:18;;;;;;;5.53;0.90;;;14.20;99.90;;;;;;5073597;28;20071;-75
2022/09/24 07:57:48;;;;;;;2.38;0.57;;;14.20;99.90;;;;;;5067700;28;20074;-71
2022/09/24 08:00:16;;;;;;;4.63;0.50;;;14.30;99.90;;;;;;5065856;28;20066;-71
2022/09/24 08:03:02;;;;;;;6.55;0.80;;;14.30;99.90;;;;;;5095423;22;20124;-84
2022/09/24 08:12:42;;;;;;;2.17;1.00;;;14.40;99.90;;;;;;5030443;22;20072;-70
2022/09/24 08:15:08;;;;;;;2.55;0.50;;;14.40;99.90;;;;;;5102581;28;20396;-70
2022/09/24 08:17:34;;;;;;;1.95;0.65;;;14.50;99.90;;;;;;5100556;28;20473;-70
2022/09/24 08:20:00;;;;;;;3.97;0.50;;;14.50;99.90;;;;;;5100352;28;20050;-70
2022/09/24 08:22:25;;;;;;;4.95;0.60;;;14.50;99.90;;;;;;5099749;28;20559;-70
2022/09/24 08:24:53;;;;;;;2.85;0.90;;;14.60;99.90;;;;;;5076849;28;20207;-70
2022/09/24 08:27:19;;;;;;;5.60;0.60;;;14.60;99.90;;;;;;5097447;27;20036;-70
2022/09/24 08:29:45;;;;;;;5.78;0.95;;;14.60;99.90;;;;;;5092851;28;20047;-70
2022/09/24 08:32:12;;;;;;;4.90;0.80;;;14.70;99.90;;;;;;5092811;27;20051;-71
2022/09/24 08:34:39;;;;;;;3.70;0.60;;;14.70;99.90;;;;;;5094668;28;20039;-70
2022/09/24 08:37:06;;;;;;;3.90;1.23;;;14.70;99.90;;;;;;5095364;28;20143;-70
2022/09/24 08:39:34;;;;;;;2.95;1.42;;;14.80;99.90;;;;;;5099906;28;20392;-70
2022/09/24 08:42:04;;;;;;;3.38;0.88;;;14.90;99.90;;;;;;5093450;28;20035;-70
2022/09/24 08:47:49;;;;;;;5.03;0.88;;;14.90;99.90;;;;;;5088899;27;20060;-70
2022/09/24 08:50:26;;;;;;;1.38;0.52;;;14.90;99.90;;;;;;5095972;28;20485;-70
2022/09/24 08:53:02;;;;;;;3.25;0.80;;;14.90;99.90;;;;;;5102969;27;20112;-70
2022/09/24 08:55:39;;;;;;;3.53;0.50;;;14.90;99.90;;;;;;5101698;28;20122;-71
2022/09/24 08:58:11;;;;;;;6.70;0.95;;;14.90;99.90;;;;;;5101377;28;20046;-71
2022/09/24 09:01:00;;;;;;;8.63;0.93;;;14.90;99.90;;;;;;5103652;27;20043;-70
2022/09/24 09:03:34;;;;;;;3.65;0.85;;;14.90;99.90;;;;;;5084808;27;20059;-70
2022/09/24 09:06:47;;;;;;;7.55;0.80;;;14.90;99.90;;;;;;5097473;28;20080;-70
2022/09/24 09:09:39;;;;;;;4.30;0.63;;;14.80;99.90;;;;;;5066758;28;20079;-71
2022/09/24 09:12:22;;;;;;;6.00;1.25;;;14.80;99.90;;;;;;5092040;28;20392;-70
2022/09/24 09:14:51;;;;;;;4.28;0.73;;;14.80;99.90;;;;;;5099597;28;20110;-70
2022/09/24 09:17:25;;;;;;;3.92;0.88;;;14.80;99.90;;;;;;5093612;28;20039;-70
2022/09/24 09:20:00;;;;;;;3.17;1.17;;;14.80;99.90;;;;;;5095040;28;20088;-70
2022/09/24 09:22:36;;;;;;;2.53;0.80;;;14.80;99.90;;;;;;5091377;27;20028;-70
2022/09/24 09:25:40;;;;;;;3.17;0.70;;;14.80;99.90;;;;;;5102738;27;20080;-70
2022/09/24 09:28:14;;;;;;;3.63;0.60;;;14.80;99.90;;;;;;5045964;28;20058;-70
2022/09/24 09:31:12;;;;;;;5.18;0.82;;;14.80;99.90;;;;;;5093756;28;20358;-70
2022/09/24 09:34:01;;;;;;;5.22;0.68;;;14.80;99.90;;;;;;5102283;27;20504;-71
2022/09/24 09:36:52;;;;;;;4.60;0.52;;;14.80;99.90;;;;;;5093762;28;20450;-72
2022/09/24 09:39:36;;;;;;;7.07;0.70;;;14.90;99.90;;;;;;5095056;28;20122;-71
2022/09/24 09:42:17;;;;;;;3.05;0.90;;;14.80;99.90;;;;;;5098527;28;20329;-71
2022/09/24 09:44:44;;;;;;;2.60;0.50;;;14.80;99.90;;;;;;5098531;28;20036;-71
2022/09/24 09:47:44;;;;;;;2.20;0.88;;;14.80;99.90;;;;;;5093119;28;20071;-72
2022/09/24 09:50:28;;;;;;;1.67;0.43;;;14.80;99.90;;;;;;5095714;28;20044;-71
2022/09/24 09:52:54;;;;;;;3.60;0.50;;;14.80;99.90;;;;;;5095385;28;20088;-71
2022/09/24 09:55:40;;;;;;;;;;;14.90;99.90;;;;;;5094693;28;20442;-72
2022/09/24 09:58:15;;;;;;;5.35;0.70;;;14.90;99.90;;;;;;5091705;28;19931;-72
2022/09/24 10:00:48;;;;;;;2.75;0.57;;;14.90;99.90;;;;;;5098701;28;20044;-72
2022/09/24 10:03:45;;;;;;;4.93;0.70;;;14.90;99.90;;;;;;5095946;28;20525;-72
2022/09/24 10:06:27;;;;;;;4.50;0.70;;;14.90;99.90;;;;;;5085388;28;20123;-70
2022/09/24 10:08:53;;;;;;;2.70;0.50;;;15.00;99.90;;;;;;5090138;28;20049;-70
2022/09/24 10:11:21;;;;;;;2.10;0.70;;;15.00;99.90;;;;;;5094756;28;20423;-70
2022/09/24 10:14:11;;;;;;;4.38;0.80;;;15.00;99.90;;;;;;5081174;28;20044;-70
2022/09/24 10:16:40;;;;;;;9.73;1.13;;;15.00;99.90;;;;;;5099706;28;20051;-70
2022/09/24 10:19:24;;;;;;;2.63;0.75;;;15.00;99.90;;;;;;5090674;28;20423;-70
2022/09/24 10:21:52;;;;;;;2.72;0.52;;;15.00;99.90;;;;;;5095544;28;20123;-70
2022/09/24 10:24:21;;;;;;;6.82;0.70;;;15.00;99.90;;;;;;5089187;28;20054;-70
2022/09/24 10:26:48;;;;;;;2.90;0.70;;;15.00;99.90;;;;;;5095962;28;20044;-70
2022/09/24 10:32:22;;;;;;;5.90;0.70;;;15.00;99.90;;;;;;5091333;28;20032;-72
2022/09/24 10:35:00;;;;;;;3.58;0.60;;;15.00;99.90;;;;;;5089459;28;20089;-71
2022/09/24 10:37:27;;;;;;;3.47;1.02;;;15.00;99.90;;;;;;5098792;28;20035;-71
2022/09/24 10:39:58;;;;;;;4.30;0.80;;;15.00;99.90;;;;;;5087765;28;20046;-70
2022/09/24 10:42:26;;;;;;;1.98;0.40;;;15.00;99.90;;;;;;5100305;28;20089;-70
2022/09/24 10:45:00;;;;;;;4.85;1.75;;;15.00;99.90;;;;;;5103915;28;20424;-70
2022/09/24 10:47:37;;;;;;;3.50;1.02;;;15.00;99.90;;;;;;5081683;28;20032;-70
2022/09/24 10:50:14;;;;;;;6.40;0.70;;;15.00;99.90;;;;;;5094056;28;20122;-70
2022/09/24 10:52:48;;;;;;;2.15;0.40;;;15.10;99.90;;;;;;5105921;28;20501;-70
2022/09/24 10:55:54;;;;;;;3.55;0.60;;;15.10;99.90;;;;;;5103329;28;20584;-70
2022/09/24 10:58:33;;;;;;;6.13;1.13;;;15.00;99.90;;;;;;5097370;27;20043;-70
2022/09/24 11:01:02;;;;;;;2.67;0.52;;;15.10;99.90;;;;;;5105726;28;20122;-70
2022/09/24 11:03:43;;;;;;;4.28;1.00;;;15.10;99.90;;;;;;5102914;27;20074;-70
2022/09/24 11:06:17;;;;;;;2.78;0.50;;;15.20;99.90;;;;;;5100133;28;20044;-70
2022/09/24 11:09:08;;;;;;;3.75;0.60;;;15.30;99.90;;;;;;5111144;27;20043;-71
2022/09/24 11:11:46;;;;;;;4.18;0.60;;;15.40;99.90;;;;;;5094273;27;20047;-70
2022/09/24 11:14:43;;;;;;;3.88;0.73;;;15.50;99.90;;;;;;5102136;27;20412;-70
2022/09/24 11:17:32;;;;;;;3.00;0.60;;;15.50;99.90;;;;;;5094232;28;20058;-70
2022/09/24 11:20:08;;;;;;;4.25;0.43;;;15.60;99.90;;;;;;5099005;28;20054;-70
2022/09/24 11:22:53;;;;;;;;;;;15.70;99.90;;;;;;5107667;28;20075;-71
2022/09/24 11:25:18;;;;;;;2.95;0.60;;;15.70;99.90;;;;;;5103711;27;19968;-71
2022/09/24 11:27:48;;;;;;;4.22;1.20;;;15.70;99.90;;;;;;5103622;28;20243;-70
2022/09/24 11:30:20;;;;;;;3.97;0.57;;;15.70;99.90;;;;;;5079527;28;20423;-71
2022/09/24 11:33:25;;;;;;;2.85;0.80;;;15.70;99.90;;;;;;5101498;28;20536;-70
2022/09/24 11:36:28;;;;;;;5.70;0.82;;;15.70;99.90;;;;;;5080911;28;20123;-70
2022/09/24 11:39:22;;;;;;;4.32;0.73;;;15.60;99.90;;;;;;5100660;28;20084;-71
2022/09/24 11:41:56;;;;;;;1.92;0.57;;;15.60;99.90;;;;;;5109740;27;20270;-70
2022/09/24 11:44:49;;;;;;;3.33;0.65;;;15.50;99.90;;;;;;5111654;27;20048;-70
2022/09/24 11:47:25;;;;;;;4.90;1.38;;;15.50;99.90;;;;;;5102365;28;20039;-70
2022/09/24 11:50:02;;;;;;;3.78;0.80;;;15.40;99.90;;;;;;5099492;28;20067;-70
2022/09/24 11:52:33;;;;;;;4.28;0.50;;;15.40;99.90;;;;;;5107234;28;20497;-71
2022/09/24 11:55:31;;;;;;;7.70;0.80;;;15.30;99.90;;;;;;5104937;28;20028;-70
2022/09/24 11:58:15;;;;;;;5.10;0.85;;;15.30;99.90;;;;;;5094551;27;20050;-70
2022/09/24 12:00:53;;;;;;;5.97;0.60;;;15.20;99.90;;;;;;5101694;27;20058;-71
2022/09/24 12:03:38;;;;;;;4.65;0.60;;;15.20;99.90;;;;;;5099465;28;20580;-70
2022/09/24 12:06:12;;;;;;;2.47;1.10;;;15.30;99.90;;;;;;5099341;28;20443;-71
2022/09/24 12:08:55;;;;;;;2.85;0.63;;;15.20;99.90;;;;;;5106961;28;20063;-70
2022/09/24 12:11:45;;;;;;;2.72;1.50;;;15.10;99.90;;;;;;5116097;27;20092;-70
2022/09/24 12:14:28;;;;;;;4.32;0.50;;;15.10;99.90;;;;;;5096379;27;20055;-70
2022/09/24 12:17:04;;;;;;;4.78;0.90;;;15.10;99.90;;;;;;5092149;28;20067;-70
2022/09/24 12:19:35;;;;;;;2.03;0.40;;;15.10;99.90;;;;;;5097861;28;20048;-70
2022/09/24 12:22:03;;;;;;;19.30;6.90;;;15.10;99.90;;;;;;5096861;28;20083;-70
2022/09/24 12:24:46;;;;;;;6.03;1.65;;;15.10;99.90;;;;;;5097740;28;20043;-70
2022/09/24 12:27:18;;;;;;;2.15;0.50;;;15.10;99.90;;;;;;5098227;28;20043;-70
2022/09/24 12:32:56;;;;;;;7.05;0.63;;;15.10;99.90;;;;;;5097953;28;20052;-74
2022/09/24 12:35:27;;;;;;;3.55;0.80;;;15.20;99.90;;;;;;5087975;28;20326;-72
2022/09/24 12:37:59;;;;;;;2.25;0.63;;;15.20;99.90;;;;;;5092523;28;20365;-72
2022/09/24 12:40:43;;;;;;;5.70;1.00;;;15.20;99.90;;;;;;5099728;28;20039;-72
2022/09/24 12:43:40;;;;;;;2.40;0.63;;;15.20;99.90;;;;;;5075951;28;20175;-69
2022/09/24 12:46:12;;;;;;;1.65;0.63;;;15.30;99.90;;;;;;5092485;28;20616;-70
2022/09/24 12:48:38;;;;;;;5.65;1.05;;;15.30;99.90;;;;;;5106208;28;20146;-70
2022/09/24 12:51:09;;;;;;;3.67;0.70;;;15.40;99.90;;;;;;5092237;28;20084;-70
2022/09/24 12:53:41;;;;;;;4.47;0.47;;;15.40;99.90;;;;;;5103394;28;20718;-70
2022/09/24 12:56:09;;;;;;;3.88;0.63;;;15.50;99.90;;;;;;5106523;28;20038;-70
2022/09/24 12:58:43;;;;;;;6.40;1.08;;;15.60;99.90;;;;;;5105949;28;20082;-70
2022/09/24 13:01:24;;;;;;;2.70;0.55;;;15.60;99.90;;;;;;5105966;28;20400;-69
2022/09/24 13:04:13;;;;;;;5.47;1.88;;;15.60;99.90;;;;;;5103825;28;20023;-70
2022/09/24 13:06:41;;;;;;;4.60;1.20;;;15.60;99.90;;;;;;5101082;28;20096;-70
2022/09/24 13:09:35;;;;;;;4.82;0.80;;;15.60;99.90;;;;;;5105390;28;20114;-70
2022/09/24 13:12:14;;;;;;;4.47;1.02;;;15.60;99.90;;;;;;5098745;28;20063;-70
2022/09/24 13:14:46;;;;;;;7.25;0.68;;;15.60;99.90;;;;;;5098022;28;20426;-70
2022/09/24 13:17:14;;;;;;;3.67;0.70;;;15.60;99.90;;;;;;5102821;27;20147;-71
2022/09/24 13:19:43;;;;;;;4.05;0.70;;;15.70;99.90;;;;;;5099744;28;20326;-71
2022/09/24 13:22:24;;;;;;;7.45;1.10;;;15.80;99.90;;;;;;5102986;28;20114;-70
2022/09/24 13:24:53;;;;;;;2.97;0.73;;;15.90;99.90;;;;;;5105821;28;20092;-70
2022/09/24 13:27:30;;;;;;;5.28;1.20;;;16.00;99.90;;;;;;5105364;28;20466;-71
2022/09/24 13:30:21;;;;;;;7.13;1.45;;;16.10;99.90;;;;;;5079825;28;20065;-70
2022/09/24 13:32:58;;;;;;;2.05;0.57;;;16.10;99.90;;;;;;5089864;28;20082;-70